Time;durP1;ratioP1;P1;durP2;ratioP2;P2;SDS_P1;SDS_P2;PMS_P1;PMS_P2;Temp;Humidity;BMP_temperature;BMP_pressure;BME280_temperature;BME280_humidity;BME280_pressure;Samples;Min_cycle;Max_cycle;Signal;HPM_P1;HPM_P2
2022/09/30 00:00:55;;;;;;;7.80;5.80;;;;;;;;;;4992461;28;20395;-68
2022/09/30 00:03:22;;;;;;;6.97;5.30;;;;;;;;;;4992512;28;20051;-68
2022/09/30 00:06:03;;;;;;;11.02;6.22;;;;;;;;;;4992464;28;20054;-68
2022/09/30 00:08:35;;;;;;;12.98;6.38;;;;;;;;;;4985990;28;20133;-68
2022/09/30 00:11:05;;;;;;;6.38;5.35;;;;;;;;;;4992336;28;20098;-68
2022/09/30 00:13:33;;;;;;;10.05;6.28;;;;;;;;;;4992703;28;20054;-68
2022/09/30 00:16:00;;;;;;;7.68;5.55;;;;;;;;;;4992569;28;20050;-68
2022/09/30 00:18:27;;;;;;;7.43;5.43;;;;;;;;;;4992090;28;20043;-68
2022/09/30 00:20:54;;;;;;;8.88;5.60;;;;;;;;;;4992636;28;20120;-68
2022/09/30 00:23:21;;;;;;;7.78;5.28;;;;;;;;;;4992256;28;20133;-68
2022/09/30 00:25:48;;;;;;;8.38;5.30;;;;;;;;;;4992327;28;20085;-68
2022/09/30 00:28:15;;;;;;;8.07;5.10;;;;;;;;;;4992541;28;20042;-68
2022/09/30 00:30:42;;;;;;;7.75;5.80;;;;;;;;;;4992302;28;20100;-68
2022/09/30 00:33:09;;;;;;;9.25;5.90;;;;;;;;;;4991967;28;20070;-67
2022/09/30 00:35:36;;;;;;;7.50;5.22;;;;;;;;;;4992166;28;20054;-68
2022/09/30 00:38:02;;;;;;;7.07;5.38;;;;;;;;;;4991992;28;20090;-68
2022/09/30 00:40:29;;;;;;;9.45;5.20;;;;;;;;;;4992072;28;20046;-68
2022/09/30 00:42:57;;;;;;;7.90;5.25;;;;;;;;;;4992404;28;20128;-68
2022/09/30 00:45:26;;;;;;;8.80;6.30;;;;;;;;;;4992373;28;20161;-67
2022/09/30 00:48:01;;;;;;;9.82;5.30;;;;;;;;;;4974630;28;20086;-67
2022/09/30 00:50:41;;;;;;;6.50;5.40;;;;;;;;;;4991904;28;20566;-67
2022/09/30 00:53:12;;;;;;;6.82;5.72;;;;;;;;;;4975415;28;20050;-68
2022/09/30 00:55:59;;;;;;;10.50;5.05;;;;;;;;;;4994025;28;20137;-68
2022/09/30 00:58:28;;;;;;;9.32;5.25;;;;;;;;;;4958988;28;20105;-68
2022/09/30 01:00:55;;;;;;;10.57;5.30;;;;;;;;;;4991663;28;20128;-68
2022/09/30 01:03:22;;;;;;;7.57;5.53;;;;;;;;;;4995605;28;20073;-68
2022/09/30 01:05:50;;;;;;;6.55;5.38;;;;;;;;;;4995485;28;20493;-68
2022/09/30 01:08:17;;;;;;;7.68;5.20;;;;;;;;;;4978558;28;20513;-68
2022/09/30 01:10:44;;;;;;;7.90;5.28;;;;;;;;;;4976802;28;20053;-68
2022/09/30 01:13:10;;;;;;;6.78;4.72;;;;;;;;;;4975905;28;20046;-68
2022/09/30 01:15:55;;;;;;;7.72;4.95;;;;;;;;;;4991067;28;20058;-68
2022/09/30 01:18:35;;;;;;;9.05;6.20;;;;;;;;;;4974821;28;20051;-68
2022/09/30 01:21:21;;;;;;;5.38;4.80;;;;;;;;;;4981798;28;20113;-68
2022/09/30 01:24:22;;;;;;;7.40;5.75;;;;;;;;;;4994860;28;20058;-68
2022/09/30 01:27:01;;;;;;;7.03;4.80;;;;;;;;;;4995687;28;20054;-67
2022/09/30 01:30:14;;;;;;;6.70;4.78;;;;;;;;;;4977840;28;20069;-68
2022/09/30 01:32:59;;;;;;;6.63;4.80;;;;;;;;;;4936586;28;20532;-68
2022/09/30 01:36:08;;;;;;;8.88;4.95;;;;;;;;;;4995211;28;20348;-68
2022/09/30 01:38:57;;;;;;;7.55;5.15;;;;;;;;;;4949379;28;20521;-68
2022/09/30 01:41:27;;;;;;;9.27;5.63;;;;;;;;;;4980527;28;20097;-68
2022/09/30 01:44:20;;;;;;;7.78;5.18;;;;;;;;;;4977723;28;20089;-68
2022/09/30 01:46:50;;;;;;;;;;;;;;;;;;4964929;28;20354;-67
2022/09/30 01:49:38;;;;;;;6.70;5.53;;;;;;;;;;4994843;28;19926;-68
2022/09/30 01:52:16;;;;;;;7.88;5.68;;;;;;;;;;4994882;28;20138;-68
2022/09/30 01:54:47;;;;;;;8.00;5.63;;;;;;;;;;4977981;28;20152;-68
2022/09/30 01:57:18;;;;;;;9.32;6.45;;;;;;;;;;4994595;28;20510;-68
2022/09/30 02:00:01;;;;;;;10.32;6.82;;;;;;;;;;4977169;28;20133;-68
2022/09/30 02:02:29;;;;;;;8.00;5.85;;;;;;;;;;4979385;28;20050;-68
2022/09/30 02:05:06;;;;;;;12.05;6.13;;;;;;;;;;4961529;28;20100;-68
2022/09/30 02:08:03;;;;;;;11.50;6.15;;;;;;;;;;4961028;28;20141;-68
2022/09/30 02:10:55;;;;;;;9.02;5.22;;;;;;;;;;4963596;28;20096;-68
2022/09/30 02:13:27;;;;;;;5.10;4.15;;;;;;;;;;4960731;28;20050;-68
2022/09/30 02:15:55;;;;;;;7.28;4.72;;;;;;;;;;4991342;28;20082;-68
2022/09/30 02:18:33;;;;;;;7.40;5.57;;;;;;;;;;4977540;28;20050;-68
2022/09/30 02:21:01;;;;;;;8.57;5.63;;;;;;;;;;4961568;28;20117;-69
2022/09/30 02:23:31;;;;;;;6.35;5.75;;;;;;;;;;4960805;28;20577;-68
2022/09/30 02:26:05;;;;;;;6.82;5.22;;;;;;;;;;4977242;28;20078;-68
2022/09/30 02:28:34;;;;;;;7.65;4.93;;;;;;;;;;4993130;28;20069;-68
2022/09/30 02:31:01;;;;;;;7.50;5.07;;;;;;;;;;4976829;28;20108;-68
2022/09/30 02:33:33;;;;;;;6.38;5.65;;;;;;;;;;4989377;28;20101;-68
2022/09/30 02:36:06;;;;;;;9.25;5.45;;;;;;;;;;4974344;28;20507;-68
2022/09/30 02:38:37;;;;;;;8.32;4.70;;;;;;;;;;4962325;28;20478;-68
2022/09/30 02:41:15;;;;;;;9.00;5.70;;;;;;;;;;4973394;28;20054;-68
2022/09/30 02:43:42;;;;;;;8.95;5.60;;;;;;;;;;4981041;28;20050;-68
2022/09/30 02:46:11;;;;;;;10.45;5.40;;;;;;;;;;4993619;28;20142;-68
2022/09/30 02:48:57;;;;;;;8.90;5.38;;;;;;;;;;4993224;28;20556;-68
2022/09/30 02:51:59;;;;;;;9.25;5.38;;;;;;;;;;4994012;28;20417;-68
2022/09/30 02:54:49;;;;;;;8.02;5.50;;;;;;;;;;4960959;28;20101;-68
2022/09/30 02:57:21;;;;;;;6.57;5.05;;;;;;;;;;4993362;28;20069;-68
2022/09/30 02:59:50;;;;;;;8.07;5.80;;;;;;;;;;4976839;28;20042;-68
2022/09/30 03:02:16;;;;;;;8.20;5.70;;;;;;;;;;4993482;28;20109;-68
2022/09/30 03:04:44;;;;;;;8.88;5.80;;;;;;;;;;4976587;28;20097;-68
2022/09/30 03:07:11;;;;;;;10.35;5.60;;;;;;;;;;4979297;28;20101;-68
2022/09/30 03:09:38;;;;;;;9.63;5.97;;;;;;;;;;4988577;28;20490;-68
2022/09/30 03:12:14;;;;;;;7.03;5.45;;;;;;;;;;4985207;28;20104;-68
2022/09/30 03:15:03;;;;;;;8.00;5.97;;;;;;;;;;4993129;28;20081;-68
2022/09/30 03:17:38;;;;;;;7.32;5.78;;;;;;;;;;4978231;28;20054;-68
2022/09/30 03:20:05;;;;;;;7.45;5.60;;;;;;;;;;4974915;28;20054;-68
2022/09/30 03:22:40;;;;;;;8.85;6.00;;;;;;;;;;4993014;28;20465;-69
2022/09/30 03:25:28;;;;;;;5.88;5.20;;;;;;;;;;4976076;28;20081;-68
2022/09/30 03:28:04;;;;;;;6.78;5.82;;;;;;;;;;4977084;28;20051;-68
2022/09/30 03:30:31;;;;;;;8.35;6.50;;;;;;;;;;4975683;28;20086;-68
2022/09/30 03:33:07;;;;;;;8.43;5.93;;;;;;;;;;4959674;28;20517;-68
2022/09/30 03:35:42;;;;;;;7.07;5.75;;;;;;;;;;4992964;28;20108;-68
2022/09/30 03:38:46;;;;;;;8.15;7.13;;;;;;;;;;4975828;28;20081;-69
2022/09/30 03:41:21;;;;;;;10.00;5.97;;;;;;;;;;4993084;28;20565;-69
2022/09/30 03:43:57;;;;;;;7.72;6.20;;;;;;;;;;4960418;28;20105;-68
2022/09/30 03:46:30;;;;;;;7.28;5.95;;;;;;;;;;4988808;28;20133;-68
2022/09/30 03:48:57;;;;;;;;;;;;;;;;;;4960831;28;20069;-69
2022/09/30 03:51:24;;;;;;;11.43;6.45;;;;;;;;;;4975569;28;19963;-68
2022/09/30 03:53:52;;;;;;;10.05;6.93;;;;;;;;;;4992901;28;20065;-69
2022/09/30 03:56:29;;;;;;;7.15;6.25;;;;;;;;;;4975547;28;20137;-69
2022/09/30 03:58:56;;;;;;;10.23;7.20;;;;;;;;;;4992364;28;20054;-68
2022/09/30 04:01:23;;;;;;;10.43;7.18;;;;;;;;;;4992892;28;20481;-69
2022/09/30 04:03:51;;;;;;;12.85;7.68;;;;;;;;;;4992685;28;20086;-68
2022/09/30 04:06:22;;;;;;;10.40;8.45;;;;;;;;;;4993112;28;20065;-68
2022/09/30 04:08:49;;;;;;;11.98;7.30;;;;;;;;;;4984082;28;20387;-69
2022/09/30 04:11:16;;;;;;;11.32;7.00;;;;;;;;;;4972256;28;20066;-69
2022/09/30 04:13:43;;;;;;;8.50;6.68;;;;;;;;;;4980967;28;20498;-68
2022/09/30 04:16:09;;;;;;;9.02;6.90;;;;;;;;;;4973353;28;20138;-68
2022/09/30 04:18:37;;;;;;;9.57;6.88;;;;;;;;;;4980146;28;20051;-68
2022/09/30 04:21:07;;;;;;;8.88;7.50;;;;;;;;;;4991804;28;20054;-69
2022/09/30 04:23:38;;;;;;;9.95;7.85;;;;;;;;;;5011105;28;20089;-69
2022/09/30 04:26:06;;;;;;;11.43;8.85;;;;;;;;;;4989384;28;20113;-68
2022/09/30 04:28:33;;;;;;;10.85;8.30;;;;;;;;;;4974269;28;20586;-68
2022/09/30 04:31:04;;;;;;;10.32;8.10;;;;;;;;;;4975032;28;20050;-68
2022/09/30 04:33:31;;;;;;;11.95;7.32;;;;;;;;;;4976604;28;20086;-68
2022/09/30 04:35:59;;;;;;;13.73;7.93;;;;;;;;;;4976762;28;20055;-68
2022/09/30 04:38:26;;;;;;;15.60;7.85;;;;;;;;;;4976527;28;20058;-69
2022/09/30 04:40:54;;;;;;;19.38;7.47;;;;;;;;;;4976448;28;20058;-68
2022/09/30 04:43:22;;;;;;;12.45;7.80;;;;;;;;;;4976699;28;20082;-68
2022/09/30 04:45:49;;;;;;;18.40;8.07;;;;;;;;;;4975332;28;20497;-68
2022/09/30 04:48:16;;;;;;;57.97;29.27;;;;;;;;;;4976506;28;20055;-68
2022/09/30 04:50:43;;;;;;;59.78;31.95;;;;;;;;;;4984440;28;20053;-68
2022/09/30 04:53:11;;;;;;;37.95;20.27;;;;;;;;;;4995807;28;20133;-69
2022/09/30 04:55:38;;;;;;;26.30;14.43;;;;;;;;;;4996343;28;20544;-68
2022/09/30 04:58:04;;;;;;;24.50;11.65;;;;;;;;;;4995638;28;20050;-69
2022/09/30 05:00:31;;;;;;;32.67;10.63;;;;;;;;;;4972164;28;20129;-68
2022/09/30 05:02:58;;;;;;;24.58;10.00;;;;;;;;;;4996003;28;20480;-68
2022/09/30 05:05:24;;;;;;;13.88;9.68;;;;;;;;;;4995747;28;20050;-68
2022/09/30 05:07:51;;;;;;;18.05;9.48;;;;;;;;;;4995583;28;20561;-68
2022/09/30 05:10:17;;;;;;;13.95;7.97;;;;;;;;;;4987561;28;20082;-68
2022/09/30 05:12:44;;;;;;;43.92;9.90;;;;;;;;;;4976013;28;20506;-68
2022/09/30 05:15:11;;;;;;;33.05;9.23;;;;;;;;;;4975121;28;20481;-68
2022/09/30 05:17:38;;;;;;;42.58;9.40;;;;;;;;;;4976198;28;20054;-69
2022/09/30 05:20:09;;;;;;;46.95;10.40;;;;;;;;;;4976241;28;20137;-69
2022/09/30 05:22:37;;;;;;;20.75;8.38;;;;;;;;;;4976189;28;20069;-69
2022/09/30 05:25:04;;;;;;;11.65;8.40;;;;;;;;;;4977503;28;20046;-70
2022/09/30 05:27:30;;;;;;;25.83;9.43;;;;;;;;;;4976954;28;20085;-70
2022/09/30 05:29:57;;;;;;;21.85;8.98;;;;;;;;;;4976740;28;20093;-70
2022/09/30 05:32:24;;;;;;;19.33;9.75;;;;;;;;;;4977182;28;20054;-69
2022/09/30 05:34:50;;;;;;;18.02;8.52;;;;;;;;;;4975606;28;20137;-68
2022/09/30 05:37:17;;;;;;;14.05;8.85;;;;;;;;;;4973259;28;20137;-68
2022/09/30 05:39:44;;;;;;;19.38;9.00;;;;;;;;;;4975888;28;20046;-69
2022/09/30 05:42:10;;;;;;;12.35;7.60;;;;;;;;;;4992092;28;20152;-68
2022/09/30 05:44:39;;;;;;;9.30;7.78;;;;;;;;;;4993395;28;20089;-69
2022/09/30 05:47:06;;;;;;;8.30;7.38;;;;;;;;;;4982560;28;20153;-68
2022/09/30 05:49:33;;;;;;;8.43;6.97;;;;;;;;;;4986461;28;20061;-69
2022/09/30 05:52:00;;;;;;;7.20;6.47;;;;;;;;;;4985368;28;20055;-68
2022/09/30 05:54:27;;;;;;;8.35;7.13;;;;;;;;;;4987219;28;20089;-68
2022/09/30 05:56:54;;;;;;;8.52;7.10;;;;;;;;;;4986589;28;20085;-68
2022/09/30 05:59:20;;;;;;;8.82;7.38;;;;;;;;;;4981950;28;20108;-68
2022/09/30 06:01:47;;;;;;;8.07;6.50;;;;;;;;;;4986906;28;20082;-69
2022/09/30 06:04:14;;;;;;;10.93;8.30;;;;;;;;;;4987547;28;20050;-68
2022/09/30 06:06:41;;;;;;;9.88;7.85;;;;;;;;;;4986916;28;20382;-68
2022/09/30 06:09:07;;;;;;;10.15;7.97;;;;;;;;;;4985497;28;20136;-68
2022/09/30 06:11:34;;;;;;;9.02;7.45;;;;;;;;;;4984627;28;20089;-68
2022/09/30 06:14:01;;;;;;;11.38;8.23;;;;;;;;;;4986142;28;20093;-68
2022/09/30 06:16:28;;;;;;;19.23;9.10;;;;;;;;;;4983159;28;20544;-70
2022/09/30 06:18:54;;;;;;;14.55;9.10;;;;;;;;;;4983153;28;20057;-69
2022/09/30 06:21:22;;;;;;;15.68;9.07;;;;;;;;;;4985091;28;20109;-67
2022/09/30 06:23:48;;;;;;;23.48;8.45;;;;;;;;;;4983903;28;20046;-69
2022/09/30 06:26:15;;;;;;;16.10;10.30;;;;;;;;;;4985922;28;20096;-68
2022/09/30 06:28:44;;;;;;;32.50;9.73;;;;;;;;;;4983136;28;20047;-68
2022/09/30 06:31:10;;;;;;;15.05;8.27;;;;;;;;;;4985105;28;20093;-69
2022/09/30 06:33:37;;;;;;;20.00;12.95;;;;;;;;;;4960569;28;20089;-69
2022/09/30 06:36:05;;;;;;;13.75;9.57;;;;;;;;;;4980775;28;20129;-69
2022/09/30 06:38:36;;;;;;;17.17;8.95;;;;;;;;;;4984446;28;20129;-70
2022/09/30 06:41:03;;;;;;;12.00;8.48;;;;;;;;;;4986232;28;20383;-69
2022/09/30 06:43:30;;;;;;;17.10;8.80;;;;;;;;;;4984214;28;20050;-70
2022/09/30 06:46:17;;;;;;;16.38;8.85;;;;;;;;;;4979154;28;20058;-74
2022/09/30 06:49:11;;;;;;;21.95;9.10;;;;;;;;;;4987987;28;20046;-76
2022/09/30 06:52:01;;;;;;;23.52;9.05;;;;;;;;;;4987965;28;20049;-75
2022/09/30 06:54:28;;;;;;;22.92;9.85;;;;;;;;;;4985538;28;20058;-77
2022/09/30 06:56:56;;;;;;;14.95;8.95;;;;;;;;;;4986779;28;20185;-74
2022/09/30 06:59:25;;;;;;;13.00;9.02;;;;;;;;;;4952505;28;20466;-73
2022/09/30 07:01:52;;;;;;;10.63;8.88;;;;;;;;;;4983967;28;20046;-74
2022/09/30 07:04:18;;;;;;;12.75;9.25;;;;;;;;;;4986858;28;20061;-71
2022/09/30 07:06:48;;;;;;;13.18;9.43;;;;;;;;;;4994442;28;20050;-76
2022/09/30 07:09:14;;;;;;;14.43;9.40;;;;;;;;;;5004248;28;20030;-78
2022/09/30 07:11:41;;;;;;;18.67;8.68;;;;;;;;;;4978790;28;20050;-75
2022/09/30 07:14:09;;;;;;;14.63;8.30;;;;;;;;;;4984466;28;20054;-73
2022/09/30 07:16:35;;;;;;;17.40;9.57;;;;;;;;;;4987218;28;20054;-75
2022/09/30 07:19:03;;;;;;;11.15;9.75;;;;;;;;;;4984381;28;20498;-76
2022/09/30 07:21:32;;;;;;;15.27;9.38;;;;;;;;;;4975466;28;20053;-76
2022/09/30 07:24:17;;;;;;;13.73;9.93;;;;;;;;;;4987037;28;20510;-75
2022/09/30 07:26:56;;;;;;;11.05;8.57;;;;;;;;;;4984171;28;20057;-76
2022/09/30 07:29:22;;;;;;;22.67;12.65;;;;;;;;;;4985031;28;20077;-73
2022/09/30 07:31:58;;;;;;;17.20;10.73;;;;;;;;;;4974094;28;20137;-74
2022/09/30 07:34:26;;;;;;;20.10;10.10;;;;;;;;;;4960718;28;20056;-75
2022/09/30 07:40:01;;;;;;;12.85;9.63;;;;;;;;;;4981039;28;20421;-74
2022/09/30 07:42:28;;;;;;;12.45;10.30;;;;;;;;;;4982870;28;20109;-71
2022/09/30 07:44:54;;;;;;;11.25;9.93;;;;;;;;;;4985492;28;20045;-71
2022/09/30 07:47:28;;;;;;;12.63;9.68;;;;;;;;;;4986563;28;20055;-74
2022/09/30 07:49:56;;;;;;;15.88;9.80;;;;;;;;;;4965497;28;20047;-75
2022/09/30 07:52:22;;;;;;;13.45;9.93;;;;;;;;;;4983292;28;20085;-75
2022/09/30 07:54:49;;;;;;;12.35;9.10;;;;;;;;;;4985140;28;20465;-76
2022/09/30 07:57:17;;;;;;;12.02;9.38;;;;;;;;;;4984738;28;20050;-69
2022/09/30 07:59:44;;;;;;;18.20;11.93;;;;;;;;;;4984291;28;20043;-67
2022/09/30 08:02:14;;;;;;;12.02;9.95;;;;;;;;;;4984464;28;20050;-70
2022/09/30 08:04:41;;;;;;;11.35;9.55;;;;;;;;;;4982886;28;20043;-69
2022/09/30 08:07:11;;;;;;;13.85;9.82;;;;;;;;;;4990765;28;20097;-70
2022/09/30 08:09:37;;;;;;;9.70;8.73;;;;;;;;;;4988983;28;20092;-70
2022/09/30 08:12:04;;;;;;;11.05;8.82;;;;;;;;;;4990538;28;20133;-69
2022/09/30 08:14:31;;;;;;;12.10;9.68;;;;;;;;;;4994925;28;20547;-70
2022/09/30 08:16:59;;;;;;;11.82;9.73;;;;;;;;;;4988658;28;20050;-70
2022/09/30 08:19:28;;;;;;;18.38;10.90;;;;;;;;;;4991399;28;20046;-70
2022/09/30 08:21:55;;;;;;;11.02;9.75;;;;;;;;;;4989154;28;20058;-69
2022/09/30 08:24:22;;;;;;;10.70;9.20;;;;;;;;;;4989442;28;20145;-70
2022/09/30 08:26:50;;;;;;;15.25;10.80;;;;;;;;;;4987068;28;20413;-70
2022/09/30 08:29:16;;;;;;;12.02;10.77;;;;;;;;;;4991789;28;20157;-70
2022/09/30 08:31:51;;;;;;;11.80;9.57;;;;;;;;;;4987987;28;20049;-69
2022/09/30 08:34:18;;;;;;;12.77;10.57;;;;;;;;;;4990899;28;20106;-69
2022/09/30 08:36:45;;;;;;;13.40;12.00;;;;;;;;;;4995067;28;20061;-70
2022/09/30 08:39:12;;;;;;;16.73;12.30;;;;;;;;;;4986975;28;20430;-70
2022/09/30 08:42:03;;;;;;;14.93;11.93;;;;;;;;;;4993835;28;20097;-70
2022/09/30 08:44:46;;;;;;;15.55;12.57;;;;;;;;;;4990448;28;20076;-69
2022/09/30 08:47:34;;;;;;;16.58;13.25;;;;;;;;;;4991473;28;20134;-69
2022/09/30 08:50:03;;;;;;;18.98;13.45;;;;;;;;;;4985328;28;20043;-69
2022/09/30 08:52:33;;;;;;;16.60;13.15;;;;;;;;;;4986644;28;20474;-70
2022/09/30 08:55:41;;;;;;;17.42;12.98;;;;;;;;;;4986450;28;20059;-71
2022/09/30 08:58:17;;;;;;;15.68;13.85;;;;;;;;;;4971566;28;20378;-70
2022/09/30 09:00:43;;;;;;;17.75;14.10;;;;;;;;;;4990716;28;20128;-70
2022/09/30 09:03:10;;;;;;;18.13;15.15;;;;;;;;;;4992969;28;20046;-69
2022/09/30 09:06:03;;;;;;;20.45;15.52;;;;;;;;;;4991343;28;20042;-70
2022/09/30 09:08:57;;;;;;;21.20;16.05;;;;;;;;;;4955166;28;20500;-69
2022/09/30 09:11:35;;;;;;;20.58;16.90;;;;;;;;;;4988916;28;20089;-70
2022/09/30 09:14:26;;;;;;;18.50;14.75;;;;;;;;;;4975706;28;20090;-70
2022/09/30 09:17:06;;;;;;;16.48;14.50;;;;;;;;;;4984897;28;20130;-70
2022/09/30 09:19:47;;;;;;;16.20;13.80;;;;;;;;;;4968138;28;20448;-70
2022/09/30 09:22:14;;;;;;;18.08;13.23;;;;;;;;;;4969764;28;20046;-70
2022/09/30 09:24:46;;;;;;;16.00;13.30;;;;;;;;;;4988547;28;20050;-69
2022/09/30 09:27:34;;;;;;;15.17;13.00;;;;;;;;;;4983154;28;20055;-69
2022/09/30 09:30:06;;;;;;;18.48;13.63;;;;;;;;;;4982020;28;20556;-69
2022/09/30 09:32:34;;;;;;;16.38;12.13;;;;;;;;;;4987430;28;20047;-66
2022/09/30 09:35:23;;;;;;;13.68;11.48;;;;;;;;;;4985442;28;20112;-67
2022/09/30 09:40:55;;;;;;;12.40;10.57;;;;;;;;;;4986625;28;20100;-67
2022/09/30 09:43:53;;;;;;;14.32;11.15;;;;;;;;;;4957964;28;20082;-71
2022/09/30 09:46:26;;;;;;;17.25;11.68;;;;;;;;;;4986263;28;20054;-75
2022/09/30 09:49:27;;;;;;;12.23;10.90;;;;;;;;;;4965826;28;20062;-76
2022/09/30 09:52:12;;;;;;;11.25;9.32;;;;;;;;;;4991737;28;20097;-73
2022/09/30 09:55:08;;;;;;;11.20;9.48;;;;;;;;;;4981461;28;20124;-77
2022/09/30 09:57:35;;;;;;;10.85;9.18;;;;;;;;;;4968773;28;20501;-74
2022/09/30 10:03:05;;;;;;;13.13;9.05;;;;;;;;;;4970569;28;20054;-73
2022/09/30 10:05:39;;;;;;;9.23;8.23;;;;;;;;;;4986712;28;20054;-71
2022/09/30 10:08:20;;;;;;;8.82;7.93;;;;;;;;;;4987737;28;20050;-73
2022/09/30 10:10:53;;;;;;;10.75;9.00;;;;;;;;;;4982976;28;20075;-71
2022/09/30 10:13:24;;;;;;;14.52;8.52;;;;;;;;;;4983493;28;20288;-70
2022/09/30 10:15:55;;;;;;;11.43;8.90;;;;;;;;;;4988400;28;20074;-71
2022/09/30 10:18:33;;;;;;;10.68;8.20;;;;;;;;;;4985799;28;20050;-71
2022/09/30 10:21:18;;;;;;;10.60;8.82;;;;;;;;;;4981948;28;20498;-73
2022/09/30 10:23:45;;;;;;;8.35;7.43;;;;;;;;;;4986519;28;20046;-72
2022/09/30 10:26:23;;;;;;;7.88;6.95;;;;;;;;;;4983782;28;20078;-68
2022/09/30 10:28:53;;;;;;;6.95;6.25;;;;;;;;;;4983191;28;20168;-71
2022/09/30 10:31:27;;;;;;;5.85;5.28;;;;;;;;;;4982011;28;20086;-72
2022/09/30 10:33:59;;;;;;;8.35;6.07;;;;;;;;;;4984877;28;20047;-73
2022/09/30 10:36:36;;;;;;;8.43;6.22;;;;;;;;;;4986153;28;20394;-74
2022/09/30 10:39:18;;;;;;;7.57;6.18;;;;;;;;;;4964529;28;20113;-72
2022/09/30 10:41:44;;;;;;;9.45;6.15;;;;;;;;;;4986170;28;20561;-72
2022/09/30 10:44:19;;;;;;;7.15;5.22;;;;;;;;;;4966396;28;20055;-73
2022/09/30 10:46:47;;;;;;;6.28;4.78;;;;;;;;;;4985752;28;20050;-73
2022/09/30 10:49:27;;;;;;;4.22;3.53;;;;;;;;;;4985032;28;20086;-72
2022/09/30 10:51:55;;;;;;;4.60;3.10;;;;;;;;;;4984512;28;20474;-65
2022/09/30 10:54:52;;;;;;;3.90;3.35;;;;;;;;;;4982803;28;20082;-65
2022/09/30 10:57:33;;;;;;;4.63;3.35;;;;;;;;;;4984357;28;20374;-65
2022/09/30 11:00:05;;;;;;;4.13;2.80;;;;;;;;;;4981215;28;20331;-66
2022/09/30 11:02:51;;;;;;;4.32;2.53;;;;;;;;;;4983458;28;20141;-65
2022/09/30 11:05:28;;;;;;;4.78;2.42;;;;;;;;;;4985052;28;20169;-65
2022/09/30 11:08:17;;;;;;;2.88;2.00;;;;;;;;;;4982128;28;20077;-66
2022/09/30 11:11:02;;;;;;;3.15;1.67;;;;;;;;;;4982841;28;20425;-65
2022/09/30 11:13:56;;;;;;;2.45;1.83;;;;;;;;;;4981323;28;20054;-66
2022/09/30 11:16:47;;;;;;;2.38;1.77;;;;;;;;;;4982537;28;20601;-65
2022/09/30 11:19:17;;;;;;;4.88;1.95;;;;;;;;;;4983434;28;20085;-65
2022/09/30 11:22:13;;;;;;;2.10;1.80;;;;;;;;;;4982085;28;20050;-64
2022/09/30 11:24:42;;;;;;;2.53;1.60;;;;;;;;;;4983058;28;20093;-66
2022/09/30 11:27:08;;;;;;;4.05;2.20;;;;;;;;;;4973656;28;20050;-72
2022/09/30 11:29:39;;;;;;;5.68;1.92;;;;;;;;;;4985859;28;20050;-66
2022/09/30 11:32:27;;;;;;;4.32;2.05;;;;;;;;;;4981653;28;20074;-73
2022/09/30 11:35:20;;;;;;;2.35;1.65;;;;;;;;;;4983587;28;20089;-73
2022/09/30 11:38:29;;;;;;;1.60;1.50;;;;;;;;;;4982678;28;20504;-73
2022/09/30 11:41:18;;;;;;;5.63;1.42;;;;;;;;;;4978167;28;20059;-71
2022/09/30 11:44:13;;;;;;;1.55;1.10;;;;;;;;;;4983599;28;20137;-73
2022/09/30 11:46:52;;;;;;;5.05;1.50;;;;;;;;;;4984965;28;20066;-74
2022/09/30 11:49:25;;;;;;;2.42;1.13;;;;;;;;;;4981844;28;20057;-73
2022/09/30 11:52:23;;;;;;;2.72;1.20;;;;;;;;;;4986264;28;20089;-72
2022/09/30 11:55:07;;;;;;;2.17;1.17;;;;;;;;;;4984555;28;20160;-72
2022/09/30 11:57:46;;;;;;;2.25;1.23;;;;;;;;;;4985829;28;20177;-75
2022/09/30 12:00:17;;;;;;;2.28;1.10;;;;;;;;;;4983163;28;20077;-73
2022/09/30 12:02:46;;;;;;;4.13;1.15;;;;;;;;;;4984257;28;20050;-72
2022/09/30 12:05:19;;;;;;;1.20;0.90;;;;;;;;;;4984341;28;20051;-70
2022/09/30 12:08:13;;;;;;;2.38;1.00;;;;;;;;;;4984421;28;20679;-73
2022/09/30 12:10:50;;;;;;;2.25;0.90;;;;;;;;;;4950972;28;20568;-68
2022/09/30 12:13:40;;;;;;;1.42;0.82;;;;;;;;;;4980829;28;20054;-68
2022/09/30 12:16:13;;;;;;;1.38;0.90;;;;;;;;;;4965687;28;20104;-68
2022/09/30 12:18:41;;;;;;;2.17;0.98;;;;;;;;;;4971772;28;20059;-69
2022/09/30 12:21:25;;;;;;;1.92;1.15;;;;;;;;;;4980462;28;20100;-69
2022/09/30 12:23:59;;;;;;;1.58;1.00;;;;;;;;;;4983328;28;20062;-64
2022/09/30 12:26:26;;;;;;;1.98;1.10;;;;;;;;;;4982971;28;20254;-68
2022/09/30 12:32:07;;;;;;;2.60;1.30;;;;;;;;;;4981618;28;20053;-64
2022/09/30 12:34:53;;;;;;;1.00;0.90;;;;;;;;;;4982183;28;20448;-64
2022/09/30 12:37:41;;;;;;;2.17;1.38;;;;;;;;;;4985520;28;20117;-69
2022/09/30 12:40:51;;;;;;;2.67;1.05;;;;;;;;;;4982527;28;20086;-73
2022/09/30 12:43:40;;;;;;;1.67;1.00;;;;;;;;;;4965910;28;20133;-71
2022/09/30 12:46:07;;;;;;;5.65;1.55;;;;;;;;;;4972464;28;20493;-72
2022/09/30 12:48:56;;;;;;;5.70;2.10;;;;;;;;;;4985681;28;20452;-72
2022/09/30 12:51:30;;;;;;;2.05;1.10;;;;;;;;;;4974523;28;20113;-71
2022/09/30 12:54:17;;;;;;;5.88;2.40;;;;;;;;;;4986873;28;20460;-73
2022/09/30 12:56:45;;;;;;;3.45;1.27;;;;;;;;;;4971459;28;20080;-78
2022/09/30 12:59:12;;;;;;;1.92;1.10;;;;;;;;;;4980758;28;20054;-73
2022/09/30 13:01:40;;;;;;;3.35;1.02;;;;;;;;;;4968892;28;20557;-65
2022/09/30 13:04:07;;;;;;;1.38;0.90;;;;;;;;;;4970948;28;20502;-68
2022/09/30 13:06:46;;;;;;;2.78;1.20;;;;;;;;;;4987269;28;20050;-63
2022/09/30 13:09:15;;;;;;;1.80;0.90;;;;;;;;;;4991729;28;20063;-63
2022/09/30 13:11:43;;;;;;;1.35;0.85;;;;;;;;;;4986777;28;20038;-62
2022/09/30 13:14:25;;;;;;;1.45;0.98;;;;;;;;;;4988290;28;20081;-68
2022/09/30 13:17:06;;;;;;;1.43;1.00;;;;;;;;;;4987468;28;20131;-68
2022/09/30 13:19:39;;;;;;;2.13;0.98;;;;;;;;;;4986464;28;20324;-66
2022/09/30 13:22:28;;;;;;;1.77;0.75;;;;;;;;;;4986088;28;20082;-63
2022/09/30 13:25:03;;;;;;;0.80;0.60;;;;;;;;;;4987878;28;20457;-69
2022/09/30 13:27:39;;;;;;;0.85;0.70;;;;;;;;;;4988805;28;20050;-71
2022/09/30 13:30:11;;;;;;;2.65;0.85;;;;;;;;;;4986825;28;20101;-70
2022/09/30 13:32:41;;;;;;;1.17;0.85;;;;;;;;;;4986903;28;20476;-73
2022/09/30 13:35:43;;;;;;;1.23;0.60;;;;;;;;;;4968144;28;20505;-74
2022/09/30 13:38:13;;;;;;;3.08;1.27;;;;;;;;;;4960810;28;20055;-73
2022/09/30 13:40:40;;;;;;;1.48;1.13;;;;;;;;;;4967471;28;20082;-64
2022/09/30 13:43:33;;;;;;;4.78;1.17;;;;;;;;;;4986560;28;20584;-71
2022/09/30 13:46:24;;;;;;;2.75;1.00;;;;;;;;;;4985362;28;20476;-70
2022/09/30 13:48:54;;;;;;;2.00;1.25;;;;;;;;;;4968617;28;20101;-71
2022/09/30 13:51:21;;;;;;;3.50;1.45;;;;;;;;;;4982294;28;20042;-66
2022/09/30 13:53:53;;;;;;;2.10;1.30;;;;;;;;;;4988607;28;20299;-72
2022/09/30 13:56:25;;;;;;;3.72;1.40;;;;;;;;;;4983001;28;20392;-71
2022/09/30 13:59:12;;;;;;;4.10;1.30;;;;;;;;;;4988013;28;20077;-69
2022/09/30 14:02:04;;;;;;;2.45;1.20;;;;;;;;;;4990602;28;20056;-67
2022/09/30 14:04:59;;;;;;;1.58;1.10;;;;;;;;;;4983804;28;20133;-64
2022/09/30 14:07:26;;;;;;;2.13;1.42;;;;;;;;;;4984615;28;20480;-66
2022/09/30 14:10:11;;;;;;;1.73;1.08;;;;;;;;;;4986822;28;20081;-65
2022/09/30 14:13:17;;;;;;;1.30;1.00;;;;;;;;;;4985818;28;20043;-67
2022/09/30 14:16:05;;;;;;;3.70;1.48;;;;;;;;;;4982580;28;20098;-67
2022/09/30 14:18:55;;;;;;;1.83;1.30;;;;;;;;;;4984861;28;20078;-69
2022/09/30 14:21:34;;;;;;;2.08;1.00;;;;;;;;;;4985767;28;20417;-70
2022/09/30 14:24:03;;;;;;;2.55;1.38;;;;;;;;;;4986832;28;20104;-67
2022/09/30 14:26:42;;;;;;;1.67;1.15;;;;;;;;;;4987071;28;20267;-69
2022/09/30 14:29:38;;;;;;;1.30;0.93;;;;;;;;;;4985404;28;20575;-70
2022/09/30 14:32:29;;;;;;;2.28;1.27;;;;;;;;;;4984595;28;20050;-73
2022/09/30 14:34:59;;;;;;;1.13;0.80;;;;;;;;;;4963386;28;20054;-65
2022/09/30 14:37:30;;;;;;;1.70;1.20;;;;;;;;;;4981931;28;20074;-72
2022/09/30 14:39:57;;;;;;;4.80;1.17;;;;;;;;;;4982670;28;20462;-74
2022/09/30 14:42:31;;;;;;;1.55;0.95;;;;;;;;;;4987575;28;20097;-74
2022/09/30 14:45:03;;;;;;;3.70;1.30;;;;;;;;;;4950702;28;20130;-74
2022/09/30 14:47:37;;;;;;;1.13;0.90;;;;;;;;;;4982982;28;20394;-70
2022/09/30 14:50:15;;;;;;;5.75;1.05;;;;;;;;;;4981739;28;20081;-75
2022/09/30 14:52:44;;;;;;;2.45;1.15;;;;;;;;;;4984892;28;20490;-74
2022/09/30 14:55:36;;;;;;;1.75;1.13;;;;;;;;;;4986668;28;20081;-76
2022/09/30 14:58:20;;;;;;;4.03;0.98;;;;;;;;;;4984932;28;20054;-70
2022/09/30 15:01:24;;;;;;;1.98;1.10;;;;;;;;;;4984760;28;20046;-65
2022/09/30 15:03:54;;;;;;;2.33;1.13;;;;;;;;;;4980152;28;20050;-66
2022/09/30 15:06:21;;;;;;;3.13;0.90;;;;;;;;;;4981960;28;20051;-65
2022/09/30 15:08:48;;;;;;;2.03;1.10;;;;;;;;;;4982181;28;20093;-66
2022/09/30 15:11:24;;;;;;;1.75;1.00;;;;;;;;;;4980890;28;20042;-65
2022/09/30 15:14:06;;;;;;;1.33;1.10;;;;;;;;;;4985237;28;20047;-66
2022/09/30 15:16:33;;;;;;;1.92;1.10;;;;;;;;;;4976369;28;20078;-66
2022/09/30 15:19:01;;;;;;;0.98;0.80;;;;;;;;;;4977510;28;20069;-65
2022/09/30 15:21:29;;;;;;;1.27;1.10;;;;;;;;;;4976892;28;20121;-66
2022/09/30 15:23:57;;;;;;;1.27;1.00;;;;;;;;;;4965316;28;20080;-66
2022/09/30 15:26:24;;;;;;;2.05;1.10;;;;;;;;;;4981091;28;20054;-66
2022/09/30 15:28:51;;;;;;;2.28;1.25;;;;;;;;;;4983579;28;20054;-66
2022/09/30 15:31:28;;;;;;;2.00;1.50;;;;;;;;;;4980289;28;20145;-66